Bluffs, Illinois
Current Conditions -  °F | °C
As of 4:35 AM on Thursday 23 Oct 2014 (Local Time) from KPPQ Reporting Station
Clear Clear  
Wind Chill: 42°   Ceiling: Unl
Heat Index: 45°   Visibility: 10mi
Dew Point: 39°   Wind: 5mph
Humidity: 81%   Direction: 160°SSE
Pressure: 30.18"   Gusts: NA
Location:  39.75°N, 90.54°W
Report Text: KPPQ 230935Z AUTO 16004KT 10SM CLR 07/04 A3018 RMK AO2 T00710041
Loading
Personal Weather Stations






























Interactive Weather Map
Tropical Storm Tracking
New forecast layout! Learn more

10-Day Weather Forecast

Advertisements
Track Severe Weather on mobile